Time;durP1;ratioP1;P1;durP2;ratioP2;P2;SDS_P1;SDS_P2;PMS_P1;PMS_P2;Temp;Humidity;BMP_temperature;BMP_pressure;BME280_temperature;BME280_humidity;BME280_pressure;Samples;Min_cycle;Max_cycle;Signal;HPM_P1;HPM_P2
2023/02/20 00:01:47;;;;;;;2.45;1.95;;;5.40;99.90;;;;;;5074716;28;20266;-60
2023/02/20 00:04:13;;;;;;;1.65;1.52;;;5.40;99.90;;;;;;5074634;28;20197;-60
2023/02/20 00:06:41;;;;;;;4.55;2.17;;;5.40;99.90;;;;;;5074854;28;20196;-60
2023/02/20 00:09:08;;;;;;;1.75;1.65;;;5.40;99.90;;;;;;5074706;28;20192;-60
2023/02/20 00:11:35;;;;;;;1.70;1.60;;;5.40;99.90;;;;;;5074528;28;20639;-60
2023/02/20 00:14:01;;;;;;;2.23;1.80;;;5.40;99.90;;;;;;5074559;28;20189;-60
2023/02/20 00:16:28;;;;;;;3.20;1.90;;;5.30;99.90;;;;;;5074502;28;20485;-60
2023/02/20 00:18:54;;;;;;;2.25;1.70;;;5.30;99.90;;;;;;5074633;28;20219;-59
2023/02/20 00:21:21;;;;;;;4.15;2.47;;;5.30;99.90;;;;;;5074341;28;20695;-60
2023/02/20 00:23:49;;;;;;;4.20;2.10;;;5.30;99.90;;;;;;5074314;28;20196;-60
2023/02/20 00:26:16;;;;;;;4.05;1.70;;;5.20;99.90;;;;;;5074249;28;20478;-60
2023/02/20 00:28:44;;;;;;;2.47;1.80;;;5.20;99.90;;;;;;5074098;28;20231;-60
2023/02/20 00:31:13;;;;;;;3.67;2.00;;;5.30;99.90;;;;;;5074107;28;20503;-60
2023/02/20 00:33:40;;;;;;;7.15;2.72;;;5.30;99.90;;;;;;5073927;28;20447;-61
2023/02/20 00:36:07;;;;;;;1.95;1.83;;;5.30;99.90;;;;;;5073933;28;20191;-61
2023/02/20 00:38:34;;;;;;;3.30;2.58;;;5.10;99.90;;;;;;5073681;28;20261;-60
2023/02/20 00:41:02;;;;;;;3.10;1.85;;;5.10;99.90;;;;;;5073917;28;20203;-60
2023/02/20 00:43:30;;;;;;;3.55;2.05;;;5.10;99.90;;;;;;5074038;28;20594;-60
2023/02/20 00:45:57;;;;;;;7.05;2.50;;;5.10;99.90;;;;;;5073726;28;20192;-60
2023/02/20 00:48:23;;;;;;;3.67;2.58;;;5.10;99.90;;;;;;5073726;28;20192;-60
2023/02/20 00:50:50;;;;;;;3.17;2.05;;;5.10;99.90;;;;;;5073837;28;20199;-60
2023/02/20 00:53:16;;;;;;;2.00;1.90;;;5.10;99.90;;;;;;5073740;28;20224;-60
2023/02/20 00:55:43;;;;;;;2.10;1.90;;;5.10;99.90;;;;;;5073707;28;20241;-60
2023/02/20 00:58:11;;;;;;;2.88;2.10;;;5.10;99.90;;;;;;5073556;28;20818;-60
2023/02/20 01:00:38;;;;;;;3.90;2.40;;;5.10;99.90;;;;;;5073938;28;20242;-60
2023/02/20 01:03:04;;;;;;;4.17;2.83;;;5.10;99.90;;;;;;5073284;28;20219;-60
2023/02/20 01:05:31;;;;;;;1.87;1.77;;;5.20;99.90;;;;;;5073523;28;20495;-60
2023/02/20 01:07:57;;;;;;;6.95;2.97;;;5.20;99.90;;;;;;5073501;28;20454;-60
2023/02/20 01:10:24;;;;;;;3.08;2.42;;;5.20;99.90;;;;;;5073649;28;20693;-60
2023/02/20 01:12:52;;;;;;;4.27;2.10;;;5.00;99.90;;;;;;5073175;28;20340;-60
2023/02/20 01:15:20;;;;;;;5.22;2.60;;;5.00;99.90;;;;;;5073436;28;20885;-61
2023/02/20 01:17:47;;;;;;;3.38;2.45;;;5.10;99.90;;;;;;5073502;28;20249;-60
2023/02/20 01:20:14;;;;;;;4.95;2.50;;;5.00;99.90;;;;;;5073179;28;20647;-60
2023/02/20 01:22:41;;;;;;;5.55;3.03;;;5.00;99.90;;;;;;5073117;28;20220;-60
2023/02/20 01:25:08;;;;;;;4.63;2.72;;;5.10;99.90;;;;;;5073133;28;20191;-60
2023/02/20 01:27:35;;;;;;;4.55;3.22;;;5.10;99.90;;;;;;5073085;28;20296;-60
2023/02/20 01:30:01;;;;;;;3.40;2.70;;;5.10;99.90;;;;;;5073331;28;20246;-60
2023/02/20 01:32:29;;;;;;;3.28;2.65;;;5.10;99.90;;;;;;5073308;28;20501;-60
2023/02/20 01:34:56;;;;;;;2.50;2.30;;;5.10;99.90;;;;;;5073319;28;20196;-60
2023/02/20 01:37:23;;;;;;;3.28;2.53;;;5.20;99.90;;;;;;5073134;28;20605;-60
2023/02/20 01:39:50;;;;;;;2.67;2.47;;;5.20;99.90;;;;;;5072944;28;20200;-60
2023/02/20 01:42:21;;;;;;;6.50;3.35;;;5.20;99.90;;;;;;5073274;28;20273;-60
2023/02/20 01:44:48;;;;;;;4.22;3.17;;;5.20;99.90;;;;;;5073136;28;20566;-60
2023/02/20 01:47:17;;;;;;;2.63;2.42;;;5.20;99.90;;;;;;5073036;28;20250;-60
2023/02/20 01:49:48;;;;;;;6.03;2.83;;;5.20;99.90;;;;;;5072447;28;20195;-60
2023/02/20 01:52:19;;;;;;;3.03;2.72;;;5.20;99.90;;;;;;5072715;28;20826;-60
2023/02/20 01:54:50;;;;;;;3.30;3.00;;;5.20;99.90;;;;;;5073160;28;20283;-60
2023/02/20 01:57:20;;;;;;;3.70;3.03;;;5.20;99.90;;;;;;5072989;28;20623;-60
2023/02/20 01:59:48;;;;;;;2.88;2.67;;;5.10;99.90;;;;;;5072942;28;20453;-60
2023/02/20 02:02:15;;;;;;;3.15;2.88;;;5.10;99.90;;;;;;5072764;28;20219;-60
2023/02/20 02:04:45;;;;;;;3.70;3.40;;;5.10;99.90;;;;;;5072771;28;20244;-60
2023/02/20 02:07:12;;;;;;;4.50;3.53;;;5.20;99.90;;;;;;5072738;28;20242;-60
2023/02/20 02:09:44;;;;;;;2.95;2.75;;;5.10;99.90;;;;;;5072820;28;20196;-60
2023/02/20 02:12:11;;;;;;;3.80;3.05;;;5.10;99.90;;;;;;5072812;28;20218;-60
2023/02/20 02:14:38;;;;;;;4.88;3.28;;;5.20;99.90;;;;;;5073426;28;20191;-60
2023/02/20 02:17:25;;;;;;;4.35;3.20;;;5.10;99.90;;;;;;5073121;28;20241;-60
2023/02/20 02:20:30;;;;;;;3.33;3.10;;;5.00;99.90;;;;;;5073374;28;20188;-60
2023/02/20 02:23:51;;;;;;;4.25;2.90;;;5.10;99.90;;;;;;5061059;28;20224;-60
2023/02/20 02:26:38;;;;;;;7.97;3.75;;;5.10;99.90;;;;;;5050277;28;20573;-60
2023/02/20 02:29:35;;;;;;;5.05;3.20;;;4.90;99.90;;;;;;5072788;28;20238;-60
2023/02/20 02:32:13;;;;;;;5.93;3.65;;;4.90;99.90;;;;;;5072473;28;20227;-60
2023/02/20 02:35:06;;;;;;;4.57;3.35;;;5.00;99.90;;;;;;5072850;28;20187;-60
2023/02/20 02:37:41;;;;;;;4.05;3.65;;;5.00;99.90;;;;;;5072463;28;20658;-60
2023/02/20 02:40:14;;;;;;;4.57;3.50;;;5.10;99.90;;;;;;5072521;28;20218;-60
2023/02/20 02:42:47;;;;;;;3.90;3.40;;;5.20;99.90;;;;;;5072285;28;20683;-59
2023/02/20 02:45:19;;;;;;;4.15;3.10;;;5.20;99.90;;;;;;5072337;28;20195;-60
2023/02/20 02:47:50;;;;;;;5.50;3.75;;;5.00;99.90;;;;;;5072473;28;20191;-60
2023/02/20 02:50:20;;;;;;;3.72;3.42;;;5.10;99.90;;;;;;5072354;28;20615;-60
2023/02/20 02:52:50;;;;;;;5.15;3.95;;;5.10;99.90;;;;;;5072227;28;20278;-60
2023/02/20 02:55:20;;;;;;;5.50;3.95;;;5.10;99.90;;;;;;5072279;28;20196;-60
2023/02/20 02:57:47;;;;;;;7.50;3.88;;;5.00;99.90;;;;;;5072335;28;20196;-60
2023/02/20 03:00:17;;;;;;;8.88;4.30;;;5.00;99.90;;;;;;5072376;28;20681;-60
2023/02/20 03:02:49;;;;;;;7.75;4.35;;;5.00;99.90;;;;;;5074870;28;20219;-60
2023/02/20 03:05:19;;;;;;;5.95;4.10;;;5.10;99.90;;;;;;5075722;28;20211;-60
2023/02/20 03:07:53;;;;;;;5.13;4.28;;;5.10;99.90;;;;;;5075917;28;20202;-60
2023/02/20 03:10:30;;;;;;;4.15;3.75;;;5.10;99.90;;;;;;5075832;28;20187;-60
2023/02/20 03:13:02;;;;;;;5.60;4.28;;;5.10;99.90;;;;;;5075528;28;20219;-60
2023/02/20 03:15:33;;;;;;;6.70;4.30;;;5.20;99.90;;;;;;5075670;28;20555;-60
2023/02/20 03:18:10;;;;;;;5.82;4.18;;;5.30;99.90;;;;;;5075496;28;20264;-60
2023/02/20 03:20:39;;;;;;;5.43;4.50;;;5.30;99.90;;;;;;5075441;28;20669;-60
2023/02/20 03:23:09;;;;;;;4.30;3.85;;;5.30;99.90;;;;;;5075656;28;20492;-60
2023/02/20 03:25:39;;;;;;;6.25;4.18;;;5.40;99.90;;;;;;5075448;28;20188;-60
2023/02/20 03:28:10;;;;;;;6.03;4.38;;;5.30;99.90;;;;;;5075301;28;20234;-60
2023/02/20 03:30:43;;;;;;;4.40;4.00;;;5.30;99.90;;;;;;5075780;28;20241;-60
2023/02/20 03:44:24;;;;;;;5.22;4.68;;;5.30;99.90;;;;;;5075412;28;20548;-60
2023/02/20 03:46:53;;;;;;;5.85;4.38;;;5.30;99.90;;;;;;5074929;28;20602;-60
2023/02/20 03:49:23;;;;;;;4.45;3.60;;;5.30;99.90;;;;;;5075193;28;20196;-60
2023/02/20 03:51:50;;;;;;;6.80;4.60;;;5.40;99.90;;;;;;5075423;28;20192;-60
2023/02/20 03:54:18;;;;;;;7.75;4.88;;;5.40;99.90;;;;;;5074934;28;20482;-60
2023/02/20 03:56:51;;;;;;;6.97;4.32;;;5.30;99.90;;;;;;5074988;28;20187;-60
2023/02/20 03:59:21;;;;;;;5.40;4.30;;;5.20;99.90;;;;;;5074728;28;20200;-60
2023/02/20 04:01:52;;;;;;;6.10;4.40;;;5.30;99.90;;;;;;5074929;28;20508;-60
2023/02/20 04:04:24;;;;;;;5.40;4.40;;;5.40;99.90;;;;;;5074545;28;20220;-60
2023/02/20 04:06:53;;;;;;;6.07;4.40;;;5.40;99.90;;;;;;5074727;28;20241;-60
2023/02/20 04:09:26;;;;;;;10.95;5.20;;;5.50;99.90;;;;;;5074590;28;20813;-60
2023/02/20 04:11:58;;;;;;;6.90;4.57;;;5.50;99.90;;;;;;5074438;28;20675;-60
2023/02/20 04:14:29;;;;;;;8.70;4.90;;;5.50;99.90;;;;;;5074068;28;20726;-60
2023/02/20 04:17:02;;;;;;;5.32;4.47;;;5.50;99.90;;;;;;5074219;28;20302;-60
2023/02/20 04:19:29;;;;;;;7.50;4.85;;;5.40;99.90;;;;;;5075032;28;20608;-60
2023/02/20 04:22:00;;;;;;;5.35;4.20;;;5.40;99.90;;;;;;5075059;28;20235;-60
2023/02/20 04:24:34;;;;;;;4.40;3.97;;;5.50;99.90;;;;;;5074501;28;20203;-60
2023/02/20 04:27:01;;;;;;;4.32;3.63;;;5.50;99.90;;;;;;5074450;28;20888;-60
2023/02/20 04:29:28;;;;;;;5.93;4.40;;;5.50;99.90;;;;;;5074358;28;20238;-60
2023/02/20 04:31:55;;;;;;;6.50;5.03;;;5.60;99.90;;;;;;5074205;28;20226;-60
2023/02/20 04:34:21;;;;;;;7.22;4.80;;;5.50;99.90;;;;;;5074053;28;20597;-60
2023/02/20 04:36:48;;;;;;;6.63;5.28;;;5.50;99.90;;;;;;5073920;28;20191;-60
2023/02/20 04:39:15;;;;;;;6.47;4.57;;;5.50;99.90;;;;;;5073835;28;20193;-60
2023/02/20 04:41:43;;;;;;;4.65;4.25;;;5.60;99.90;;;;;;5073771;28;20662;-60
2023/02/20 04:46:54;;;;;;;10.52;5.38;;;5.60;99.90;;;;;;5073869;28;20281;-60
2023/02/20 04:49:20;;;;;;;7.28;5.43;;;5.60;99.90;;;;;;5073642;28;20199;-60
2023/02/20 04:51:47;;;;;;;7.75;5.00;;;5.60;99.90;;;;;;5073904;28;20246;-60
2023/02/20 04:54:14;;;;;;;5.87;5.30;;;5.70;99.90;;;;;;5073758;28;20556;-60
2023/02/20 04:56:41;;;;;;;8.15;5.75;;;5.70;99.90;;;;;;5073662;28;20449;-60
2023/02/20 04:59:09;;;;;;;8.50;5.60;;;5.70;99.90;;;;;;5073714;28;20198;-60
2023/02/20 05:01:35;;;;;;;5.97;5.43;;;5.70;99.90;;;;;;5073599;28;20202;-60
2023/02/20 05:04:02;;;;;;;5.03;4.57;;;5.70;99.90;;;;;;5073341;28;20477;-60
2023/02/20 05:06:29;;;;;;;7.07;5.50;;;5.80;99.90;;;;;;5073549;28;20224;-60
2023/02/20 05:08:55;;;;;;;8.23;5.45;;;5.80;99.90;;;;;;5073615;28;20234;-60
2023/02/20 05:11:22;;;;;;;7.22;5.60;;;5.80;99.90;;;;;;5073149;28;20647;-60
2023/02/20 05:13:49;;;;;;;6.90;5.60;;;5.80;99.90;;;;;;5073444;28;20239;-60
2023/02/20 05:16:17;;;;;;;5.90;5.30;;;5.80;99.90;;;;;;5073604;28;20446;-60
2023/02/20 05:18:44;;;;;;;7.32;5.88;;;5.90;99.90;;;;;;5073958;28;20199;-60
2023/02/20 05:23:57;;;;;;;6.72;6.05;;;5.80;99.90;;;;;;5073110;28;20230;-60
2023/02/20 05:26:24;;;;;;;6.43;5.70;;;5.90;99.90;;;;;;5073090;28;20673;-60
2023/02/20 05:28:51;;;;;;;5.63;5.15;;;5.80;99.90;;;;;;5073072;28;20469;-60
2023/02/20 05:31:19;;;;;;;5.60;4.70;;;5.90;99.90;;;;;;5073051;28;20204;-60
2023/02/20 05:33:45;;;;;;;6.22;5.68;;;5.90;99.90;;;;;;5072997;28;20196;-60
2023/02/20 05:36:12;;;;;;;8.47;5.87;;;6.00;99.90;;;;;;5073090;28;20215;-60
2023/02/20 05:38:40;;;;;;;5.80;5.28;;;5.90;99.90;;;;;;5073001;28;20454;-60
2023/02/20 05:41:07;;;;;;;5.63;5.13;;;6.00;99.90;;;;;;5072977;28;20608;-60
2023/02/20 05:43:33;;;;;;;8.50;6.10;;;6.00;99.90;;;;;;5072982;28;20523;-61
2023/02/20 05:46:00;;;;;;;7.28;5.80;;;6.10;99.90;;;;;;5073165;28;20607;-60
2023/02/20 05:48:28;;;;;;;6.30;5.70;;;6.10;99.90;;;;;;5073291;28;20254;-60
2023/02/20 05:50:54;;;;;;;6.20;5.27;;;6.00;99.90;;;;;;5072945;28;20546;-60
2023/02/20 05:53:21;;;;;;;6.80;6.10;;;6.10;99.90;;;;;;5072782;28;20957;-60
2023/02/20 05:55:48;;;;;;;7.40;6.45;;;6.10;99.90;;;;;;5072804;28;20269;-60
2023/02/20 05:58:14;;;;;;;7.25;5.80;;;6.20;99.90;;;;;;5072595;28;20192;-60
2023/02/20 06:00:41;;;;;;;6.80;6.13;;;6.20;99.90;;;;;;5072919;28;20632;-60
2023/02/20 06:03:08;;;;;;;7.80;6.27;;;6.20;99.90;;;;;;5072727;28;20223;-60
2023/02/20 06:05:36;;;;;;;7.90;6.22;;;6.30;99.90;;;;;;5072870;28;20957;-61
2023/02/20 06:08:04;;;;;;;7.32;6.35;;;6.30;99.90;;;;;;5072692;28;20226;-60
2023/02/20 06:10:30;;;;;;;7.23;5.80;;;6.30;99.90;;;;;;5072789;28;20191;-60
2023/02/20 06:12:57;;;;;;;6.65;5.97;;;6.30;99.90;;;;;;5072560;28;20516;-60
2023/02/20 06:15:23;;;;;;;6.33;5.73;;;6.30;99.90;;;;;;5072776;28;20283;-60
2023/02/20 06:17:50;;;;;;;8.00;6.23;;;6.30;99.90;;;;;;5072758;28;20457;-60
2023/02/20 06:20:17;;;;;;;6.80;6.20;;;6.40;99.90;;;;;;5072642;28;20450;-60
2023/02/20 06:22:46;;;;;;;7.37;6.67;;;6.40;99.90;;;;;;5072482;28;20200;-60
2023/02/20 06:25:13;;;;;;;7.43;6.72;;;6.40;99.90;;;;;;5072336;28;20450;-60
2023/02/20 06:27:40;;;;;;;7.47;6.77;;;6.40;99.90;;;;;;5072352;28;20199;-60
2023/02/20 06:30:07;;;;;;;10.50;9.40;;;6.40;99.90;;;;;;5072534;28;20455;-60
2023/02/20 06:32:33;;;;;;;6.90;6.30;;;6.40;99.90;;;;;;5072494;28;20879;-60
2023/02/20 06:35:00;;;;;;;10.27;7.13;;;6.40;99.90;;;;;;5072240;28;20454;-60
2023/02/20 06:37:26;;;;;;;8.65;7.85;;;6.40;99.90;;;;;;5074699;28;20892;-61
2023/02/20 06:39:54;;;;;;;6.82;6.13;;;6.50;99.90;;;;;;5075992;28;20197;-60
2023/02/20 06:42:21;;;;;;;7.97;7.25;;;6.50;99.90;;;;;;5076171;28;20196;-62
2023/02/20 06:44:48;;;;;;;8.23;7.20;;;6.50;99.90;;;;;;5076028;28;20227;-61
2023/02/20 06:47:15;;;;;;;8.73;7.90;;;6.60;99.90;;;;;;5075840;28;20236;-60
2023/02/20 06:49:42;;;;;;;8.90;8.00;;;6.50;99.90;;;;;;5075935;28;20541;-60
2023/02/20 06:52:09;;;;;;;9.23;8.25;;;6.60;99.90;;;;;;5075730;28;20451;-61
2023/02/20 06:54:36;;;;;;;8.33;7.27;;;6.60;99.90;;;;;;5075755;28;20568;-61
2023/02/20 06:57:04;;;;;;;9.47;8.57;;;6.60;99.90;;;;;;5075924;28;20945;-60
2023/02/20 06:59:31;;;;;;;9.87;8.67;;;6.70;99.90;;;;;;5075905;28;21045;-61
2023/02/20 07:01:58;;;;;;;8.13;7.33;;;6.60;99.90;;;;;;5075771;28;20446;-60
2023/02/20 07:04:26;;;;;;;9.03;7.60;;;6.60;99.90;;;;;;5075659;28;20489;-61
2023/02/20 07:06:53;;;;;;;8.10;7.30;;;6.70;99.90;;;;;;5075404;28;20450;-61
2023/02/20 07:09:19;;;;;;;9.33;7.87;;;6.70;99.90;;;;;;5075597;28;20543;-61
2023/02/20 07:11:47;;;;;;;9.43;8.43;;;6.70;99.90;;;;;;5075381;28;20484;-61
2023/02/20 07:14:15;;;;;;;9.80;8.90;;;6.70;99.90;;;;;;5075470;28;20197;-60
2023/02/20 07:16:42;;;;;;;9.80;8.77;;;6.80;99.90;;;;;;5075689;28;20451;-60
2023/02/20 07:19:08;;;;;;;11.13;8.67;;;6.90;99.90;;;;;;5075377;28;20542;-59
2023/02/20 07:21:35;;;;;;;8.53;7.60;;;7.00;99.90;;;;;;5075268;28;20447;-60
2023/02/20 07:24:02;;;;;;;9.23;8.33;;;7.10;99.90;;;;;;5075251;28;20500;-59
2023/02/20 07:26:30;;;;;;;9.10;8.00;;;7.00;99.90;;;;;;5075373;28;20482;-62
2023/02/20 07:28:59;;;;;;;9.17;8.27;;;7.00;99.90;;;;;;5075410;28;20448;-60
2023/02/20 07:31:27;;;;;;;9.73;8.00;;;7.00;99.90;;;;;;5075183;28;20455;-59
2023/02/20 07:33:54;;;;;;;9.10;8.10;;;7.00;99.90;;;;;;5074983;28;20946;-60
2023/02/20 07:36:21;;;;;;;9.57;8.43;;;7.00;99.90;;;;;;5075187;28;20451;-59
2023/02/20 07:38:54;;;;;;;17.67;13.60;;;7.00;99.90;;;;;;5074989;28;20547;-59
2023/02/20 07:41:21;;;;;;;9.63;8.20;;;6.90;99.90;;;;;;5074962;28;20455;-59
2023/02/20 07:43:47;;;;;;;9.70;8.00;;;7.00;99.90;;;;;;5074991;28;20474;-59
2023/02/20 07:46:14;;;;;;;7.53;6.83;;;7.00;99.90;;;;;;5074830;28;20469;-59
2023/02/20 07:48:41;;;;;;;8.37;7.47;;;7.10;99.90;;;;;;5073348;28;20931;-59
2023/02/20 07:51:08;;;;;;;7.63;6.93;;;7.10;99.90;;;;;;5074839;28;20448;-60
2023/02/20 07:53:35;;;;;;;8.33;6.80;;;7.20;99.90;;;;;;5075012;28;20452;-59
2023/02/20 07:56:01;;;;;;;7.80;7.10;;;7.10;99.90;;;;;;5074874;28;20447;-59
2023/02/20 07:58:28;;;;;;;8.53;7.47;;;7.20;99.90;;;;;;5074679;28;20448;-59
2023/02/20 08:00:54;;;;;;;8.33;7.40;;;7.20;99.90;;;;;;5074578;28;20965;-59
2023/02/20 08:03:21;;;;;;;9.57;7.03;;;7.20;99.90;;;;;;5074067;28;20805;-60
2023/02/20 08:05:49;;;;;;;8.10;7.20;;;7.20;99.90;;;;;;5074745;28;20472;-59
2023/02/20 08:08:15;;;;;;;10.70;9.60;;;7.20;99.90;;;;;;5074395;28;20534;-59
2023/02/20 08:10:42;;;;;;;10.10;7.57;;;7.30;99.90;;;;;;5074227;28;20546;-60
2023/02/20 08:13:08;;;;;;;8.40;7.60;;;7.30;99.90;;;;;;5074170;28;20512;-59
2023/02/20 08:15:35;;;;;;;7.50;6.80;;;7.40;99.90;;;;;;5073884;28;20462;-60
2023/02/20 08:18:01;;;;;;;7.50;6.80;;;7.40;99.90;;;;;;5074220;28;20452;-62
2023/02/20 08:20:28;;;;;;;8.90;8.00;;;7.40;99.90;;;;;;5074130;28;20550;-62
2023/02/20 08:22:56;;;;;;;7.93;7.23;;;7.40;99.90;;;;;;5074136;28;20553;-61
2023/02/20 08:25:22;;;;;;;7.87;7.10;;;7.50;99.90;;;;;;5073769;28;20489;-59
2023/02/20 08:27:49;;;;;;;8.00;6.60;;;7.50;99.90;;;;;;5073895;28;20931;-59
2023/02/20 08:30:22;;;;;;;8.70;7.80;;;7.50;99.90;;;;;;5073924;28;20538;-61
2023/02/20 08:32:49;;;;;;;7.00;6.40;;;7.50;99.90;;;;;;5073715;28;20447;-59
2023/02/20 08:35:15;;;;;;;7.90;6.83;;;7.50;99.90;;;;;;5073792;28;20454;-60
2023/02/20 08:37:42;;;;;;;6.40;5.80;;;7.50;99.90;;;;;;5073673;28;20451;-61
2023/02/20 08:40:11;;;;;;;7.53;6.80;;;7.60;99.90;;;;;;5073363;28;20541;-60
2023/02/20 08:42:38;;;;;;;7.77;6.70;;;7.60;99.90;;;;;;5073404;28;20457;-58
2023/02/20 08:45:06;;;;;;;7.90;7.10;;;7.60;99.90;;;;;;5073828;28;20482;-58
2023/02/20 08:47:33;;;;;;;8.07;7.30;;;7.70;99.90;;;;;;5073420;28;20538;-66
2023/02/20 08:50:00;;;;;;;8.93;8.07;;;7.70;99.90;;;;;;5073436;28;20450;-60
2023/02/20 08:52:26;;;;;;;7.10;6.40;;;7.70;99.90;;;;;;5073422;28;20447;-62
2023/02/20 08:54:53;;;;;;;7.20;6.03;;;7.80;99.90;;;;;;5073427;28;20530;-61
2023/02/20 08:57:21;;;;;;;7.40;6.67;;;7.80;99.90;;;;;;5073331;28;20541;-62
2023/02/20 08:59:47;;;;;;;7.43;6.73;;;7.80;99.90;;;;;;5073175;28;20443;-62
2023/02/20 09:02:17;;;;;;;7.80;7.00;;;7.90;99.90;;;;;;5073330;28;21009;-59
2023/02/20 09:04:44;;;;;;;9.20;7.40;;;7.90;99.90;;;;;;5072954;28;20530;-60
2023/02/20 09:07:11;;;;;;;7.07;6.37;;;8.00;99.90;;;;;;5073074;28;20819;-59
2023/02/20 09:09:37;;;;;;;7.87;6.17;;;8.00;99.90;;;;;;5073278;28;20826;-61
2023/02/20 09:12:04;;;;;;;6.37;5.37;;;8.10;99.90;;;;;;5072739;28;20475;-59
2023/02/20 09:14:32;;;;;;;5.87;5.37;;;8.10;99.90;;;;;;5073080;28;20448;-63
2023/02/20 09:16:59;;;;;;;5.97;5.47;;;8.20;99.90;;;;;;5073110;28;20494;-59
2023/02/20 09:19:25;;;;;;;5.80;5.20;;;8.20;99.90;;;;;;5073134;28;20932;-62
2023/02/20 09:21:52;;;;;;;6.13;5.47;;;8.30;99.90;;;;;;5073060;28;20473;-62
2023/02/20 09:24:18;;;;;;;5.03;4.63;;;8.40;99.90;;;;;;5072922;28;20974;-60
2023/02/20 09:26:45;;;;;;;5.80;5.07;;;8.40;99.90;;;;;;5073195;28;20795;-62
2023/02/20 09:29:11;;;;;;;4.97;4.30;;;8.40;99.90;;;;;;5072583;28;20489;-63
2023/02/20 09:31:39;;;;;;;5.80;5.20;;;8.50;99.90;;;;;;5073019;28;20547;-62
2023/02/20 09:34:06;;;;;;;5.33;4.27;;;8.50;99.90;;;;;;5072844;28;20458;-61
2023/02/20 09:36:32;;;;;;;4.50;4.10;;;8.60;99.90;;;;;;5072971;28;20474;-64
2023/02/20 09:38:59;;;;;;;4.23;3.83;;;8.70;99.90;;;;;;5072577;28;20450;-57
2023/02/20 09:41:47;;;;;;;4.90;4.40;;;8.70;99.90;;;;;;5072506;28;20448;-59
2023/02/20 09:44:18;;;;;;;4.80;4.40;;;8.80;99.90;;;;;;5072592;28;20480;-61
2023/02/20 09:46:49;;;;;;;4.97;4.57;;;8.80;99.90;;;;;;5072783;28;20462;-61
2023/02/20 09:49:20;;;;;;;4.70;4.30;;;8.90;99.90;;;;;;5072313;28;20935;-61
2023/02/20 09:51:52;;;;;;;4.47;4.07;;;8.90;99.90;;;;;;5072509;28;20451;-61
2023/02/20 09:54:26;;;;;;;4.90;4.50;;;9.10;99.90;;;;;;5072773;28;20540;-59
2023/02/20 09:56:56;;;;;;;5.00;3.73;;;9.10;99.90;;;;;;5072671;28;20490;-60
2023/02/20 09:59:28;;;;;;;4.07;3.73;;;9.10;99.90;;;;;;5072486;28;20499;-55
2023/02/20 10:02:00;;;;;;;4.70;4.03;;;9.20;99.90;;;;;;5072469;28;20978;-58
2023/02/20 10:04:32;;;;;;;4.30;3.90;;;9.30;99.90;;;;;;5072647;28;20475;-59
2023/02/20 10:07:06;;;;;;;3.73;3.43;;;9.30;99.90;;;;;;5072668;28;20538;-58
2023/02/20 10:09:32;;;;;;;4.23;3.90;;;9.30;99.90;;;;;;5072534;28;20457;-59
2023/02/20 10:12:10;;;;;;;5.00;4.33;;;9.40;99.90;;;;;;5074252;28;20894;-56
2023/02/20 10:14:56;;;;;;;4.27;3.87;;;9.40;99.90;;;;;;5076445;28;20490;-59
2023/02/20 10:17:32;;;;;;;3.83;3.53;;;9.60;99.90;;;;;;5076427;28;20444;-57
2023/02/20 10:20:09;;;;;;;3.47;3.17;;;9.70;99.90;;;;;;5076367;28;20454;-61
2023/02/20 10:22:44;;;;;;;5.77;3.80;;;9.80;99.90;;;;;;5076245;28;20474;-58
2023/02/20 10:25:16;;;;;;;4.37;3.70;;;9.80;99.90;;;;;;5076344;28;20483;-58
2023/02/20 10:27:52;;;;;;;3.57;3.27;;;9.90;99.90;;;;;;5075808;28;20538;-57
2023/02/20 10:30:25;;;;;;;3.80;3.50;;;9.90;99.90;;;;;;5076106;28;20957;-58
2023/02/20 10:32:58;;;;;;;3.97;3.67;;;9.90;99.90;;;;;;5076178;28;20454;-58
2023/02/20 10:35:32;;;;;;;3.90;3.50;;;9.90;99.90;;;;;;5075944;28;21123;-58
2023/02/20 10:38:06;;;;;;;3.10;2.80;;;9.90;99.90;;;;;;5076136;28;20547;-59
2023/02/20 10:40:37;;;;;;;3.60;3.30;;;10.00;99.90;;;;;;5076180;28;20765;-62
2023/02/20 10:43:09;;;;;;;5.30;3.43;;;10.00;99.90;;;;;;5076097;28;20458;-64
2023/02/20 10:45:44;;;;;;;7.50;3.77;;;10.00;99.90;;;;;;5075767;28;20486;-60
2023/02/20 10:48:14;;;;;;;5.90;3.47;;;10.10;99.90;;;;;;5076082;28;20536;-61
2023/02/20 10:50:47;;;;;;;3.53;3.20;;;10.10;99.90;;;;;;5075816;28;20498;-56
2023/02/20 10:53:21;;;;;;;3.93;3.63;;;10.20;99.90;;;;;;5075784;28;20573;-58
2023/02/20 10:55:52;;;;;;;4.43;3.40;;;10.20;99.90;;;;;;5075823;28;20452;-62
2023/02/20 10:58:23;;;;;;;4.10;3.27;;;10.30;99.90;;;;;;5075242;28;20463;-60
2023/02/20 11:00:53;;;;;;;3.33;2.87;;;10.30;99.90;;;;;;5074913;28;20447;-59
2023/02/20 11:03:25;;;;;;;4.83;3.43;;;10.30;99.90;;;;;;5074561;28;20653;-60
2023/02/20 11:05:55;;;;;;;3.53;3.23;;;10.30;99.90;;;;;;5074606;28;20488;-59
2023/02/20 11:08:22;;;;;;;3.75;3.35;;;10.40;99.90;;;;;;5073991;28;20878;-59
2023/02/20 11:10:50;;;;;;;3.20;3.00;;;10.50;99.90;;;;;;5075426;28;20185;-59
2023/02/20 11:13:22;;;;;;;3.20;2.90;;;10.50;99.90;;;;;;5075013;28;20479;-59
2023/02/20 11:15:51;;;;;;;4.20;3.80;;;10.60;99.90;;;;;;5074784;28;20929;-58
2023/02/20 11:18:24;;;;;;;3.78;3.47;;;10.60;99.90;;;;;;5074474;28;20817;-59
2023/02/20 11:20:52;;;;;;;3.65;3.30;;;10.60;99.90;;;;;;5075184;28;20446;-59
2023/02/20 11:23:38;;;;;;;3.60;3.10;;;10.60;99.90;;;;;;5073768;28;20288;-59
2023/02/20 11:26:32;;;;;;;2.80;2.60;;;10.70;99.90;;;;;;5070119;28;20842;-58
2023/02/20 11:29:04;;;;;;;3.17;2.97;;;10.70;99.90;;;;;;5045424;28;20468;-58
2023/02/20 11:31:31;;;;;;;3.37;3.07;;;10.60;99.90;;;;;;5064359;28;20447;-58
2023/02/20 11:34:02;;;;;;;5.30;4.03;;;10.50;99.90;;;;;;5074535;28;20455;-58
2023/02/20 11:36:36;;;;;;;3.00;2.80;;;10.50;99.90;;;;;;5075197;28;20451;-59
2023/02/20 11:39:13;;;;;;;3.30;3.00;;;10.60;99.90;;;;;;5074660;28;20443;-58
2023/02/20 11:41:40;;;;;;;4.20;3.27;;;10.50;99.90;;;;;;5074171;28;20444;-58
2023/02/20 11:44:23;;;;;;;3.70;3.40;;;10.50;99.90;;;;;;5074800;28;20479;-58
2023/02/20 11:47:09;;;;;;;8.67;3.23;;;10.50;99.90;;;;;;5073767;28;20543;-58
2023/02/20 11:49:37;;;;;;;4.17;3.77;;;10.50;99.90;;;;;;5074927;28;20546;-58
2023/02/20 11:52:15;;;;;;;3.57;3.27;;;10.50;99.90;;;;;;5074818;28;20531;-60
2023/02/20 11:54:42;;;;;;;6.00;3.20;;;10.60;99.90;;;;;;5074900;28;20493;-57
2023/02/20 11:57:21;;;;;;;3.53;3.23;;;10.50;99.90;;;;;;5074920;28;20471;-57
2023/02/20 11:59:49;;;;;;;6.00;3.10;;;10.60;99.90;;;;;;5074803;28;20451;-58
2023/02/20 12:02:27;;;;;;;4.07;3.40;;;10.60;99.90;;;;;;5074719;28;20451;-57
2023/02/20 12:05:30;;;;;;;4.00;2.80;;;10.60;99.90;;;;;;5074656;28;20475;-57
2023/02/20 12:07:58;;;;;;;5.37;4.60;;;10.70;99.90;;;;;;5052494;28;20508;-58
2023/02/20 12:10:35;;;;;;;3.10;2.90;;;10.70;99.90;;;;;;5070577;28;20859;-57
2023/02/20 12:13:03;;;;;;;4.33;3.93;;;10.70;99.90;;;;;;5054141;28;20487;-59
2023/02/20 12:15:29;;;;;;;5.47;4.20;;;10.70;99.90;;;;;;5054403;28;20459;-58
2023/02/20 12:18:25;;;;;;;4.73;3.90;;;10.70;99.90;;;;;;5054472;28;20966;-58
2023/02/20 12:21:01;;;;;;;5.93;4.13;;;10.70;99.90;;;;;;5054338;28;20459;-58
2023/02/20 12:23:36;;;;;;;5.13;4.50;;;10.60;99.90;;;;;;5054055;28;20466;-57
2023/02/20 12:26:18;;;;;;;4.30;4.00;;;10.60;99.90;;;;;;5054093;28;21051;-58
2023/02/20 12:29:00;;;;;;;6.20;4.47;;;10.60;99.90;;;;;;5054132;28;21018;-58
2023/02/20 12:31:45;;;;;;;7.63;4.47;;;10.70;99.90;;;;;;5054181;28;20808;-58
2023/02/20 12:34:27;;;;;;;6.33;4.80;;;10.80;99.90;;;;;;5058433;28;20528;-58
2023/02/20 12:37:03;;;;;;;13.10;4.77;;;10.80;99.90;;;;;;5058520;28;20460;-58
2023/02/20 12:39:43;;;;;;;5.03;4.47;;;10.90;99.90;;;;;;5072335;28;20455;-57
2023/02/20 12:42:20;;;;;;;5.07;4.37;;;10.80;99.90;;;;;;5072577;28;20452;-57
2023/02/20 12:45:08;;;;;;;4.30;4.00;;;10.80;99.90;;;;;;5071774;28;20450;-57
2023/02/20 12:47:38;;;;;;;4.37;4.03;;;10.80;99.90;;;;;;5068877;28;20503;-57
2023/02/20 12:50:40;;;;;;;9.87;5.00;;;10.90;99.90;;;;;;5056255;28;20461;-58
2023/02/20 12:53:19;;;;;;;5.60;5.10;;;10.80;99.90;;;;;;5041375;28;20454;-60
2023/02/20 12:55:51;;;;;;;7.07;5.20;;;10.80;99.90;;;;;;5073142;28;20196;-60
2023/02/20 12:58:31;;;;;;;7.07;5.57;;;10.90;99.90;;;;;;5065096;28;20633;-59
2023/02/20 13:01:00;;;;;;;5.80;5.10;;;10.90;99.90;;;;;;5070101;28;20194;-59
2023/02/20 13:03:40;;;;;;;6.23;5.43;;;10.90;99.90;;;;;;5071293;28;21046;-60
2023/02/20 13:06:07;;;;;;;6.33;5.67;;;11.00;99.90;;;;;;5068080;28;20571;-59
2023/02/20 13:08:42;;;;;;;7.50;6.25;;;10.90;99.90;;;;;;5072141;28;20533;-58
2023/02/20 13:11:16;;;;;;;9.33;6.07;;;10.90;99.90;;;;;;5072109;28;20514;-60
2023/02/20 13:13:54;;;;;;;7.43;6.73;;;10.90;99.90;;;;;;5071730;28;20542;-60
2023/02/20 13:16:24;;;;;;;7.57;6.88;;;10.90;99.90;;;;;;5072092;28;20446;-65
2023/02/20 13:18:58;;;;;;;8.23;7.43;;;10.90;99.90;;;;;;5071588;28;20453;-65
2023/02/20 13:21:28;;;;;;;7.38;6.68;;;10.80;99.90;;;;;;5055355;28;20462;-54
2023/02/20 13:24:26;;;;;;;8.85;7.25;;;10.80;99.90;;;;;;5051593;28;20483;-62
2023/02/20 13:26:54;;;;;;;10.00;8.85;;;11.00;99.90;;;;;;5068861;28;20945;-60
2023/02/20 13:29:25;;;;;;;7.60;6.90;;;10.90;99.90;;;;;;5071902;28;20193;-59